Korfovskiy, Russia
Current Conditions -  °F | °C
As of 6:30 AM on Tuesday 27 Jan 2015 (Local Time) from UHHH Reporting Station
Clear Clear  
Wind Chill: -21°   Ceiling: Unl
Heat Index:   Visibility: 6mi
Dew Point: -6°   Wind: 18mph
Humidity: 78%   Direction: 250°WSW
Pressure: 29.91"   Gusts: NA
Location:  48.22°N, 135.05°E
Report Text: UHHH 262030Z 25008MPS CAVOK M18/M21 Q1013 NOSIG RMK QFE753/100423490550
Loading
Personal Weather Stations






























Interactive Weather Map New forecast layout! Learn more

10-Day Weather Forecast

Advertisements
Track Severe Weather on mobile